createdAt,value
2022-12-09T00:01:15.290Z,93.96
2022-12-09T00:06:15.119Z,93.87
2022-12-09T00:11:12.300Z,93.71
2022-12-09T00:16:11.977Z,93.81
2022-12-09T00:21:13.415Z,94.08
2022-12-09T00:26:10.544Z,94.17
2022-12-09T00:31:09.228Z,94.18
2022-12-09T00:36:07.847Z,94.29
2022-12-09T00:41:06.056Z,93.74
2022-12-09T00:46:03.616Z,94.28
2022-12-09T00:51:00.893Z,94.23
2022-12-09T00:55:58.195Z,93.97
2022-12-09T01:00:55.271Z,93.90
2022-12-09T01:05:54.510Z,94.13
2022-12-09T01:10:51.379Z,94.13
2022-12-09T01:15:49.254Z,94.41
2022-12-09T01:20:46.152Z,94.58
2022-12-09T01:25:43.121Z,94.61
2022-12-09T01:30:43.045Z,94.50
2022-12-09T01:35:41.090Z,94.48
2022-12-09T01:40:37.627Z,94.26
2022-12-09T01:45:38.599Z,93.95
2022-12-09T01:50:36.151Z,93.63
2022-12-09T01:55:35.057Z,93.79
2022-12-09T02:00:32.473Z,94.72
2022-12-09T02:05:30.978Z,96.57
2022-12-09T02:10:30.493Z,96.32
2022-12-09T02:15:41.771Z,97.82
2022-12-09T02:20:41.711Z,97.01
2022-12-09T02:25:43.847Z,97.86
2022-12-09T02:30:49.730Z,98.95
2022-12-09T02:35:52.498Z,99.43
2022-12-09T02:40:54.314Z,98.55
2022-12-09T02:45:57.502Z,98.10
2022-12-09T02:50:58.223Z,98.65
2022-12-09T02:55:56.379Z,98.16
2022-12-09T03:00:55.040Z,97.35
2022-12-09T03:05:55.734Z,96.90
2022-12-09T03:10:56.660Z,96.35
2022-12-09T03:15:58.283Z,94.47
2022-12-09T03:20:57.334Z,95.88
2022-12-09T03:25:56.020Z,96.33
2022-12-09T03:30:53.945Z,96.57
2022-12-09T03:35:53.585Z,95.78
2022-12-09T03:40:52.583Z,95.77
2022-12-09T03:45:51.435Z,95.41
2022-12-09T03:50:52.127Z,94.76
2022-12-09T03:55:54.341Z,95.20
2022-12-09T04:00:55.219Z,96.57
2022-12-09T04:05:51.983Z,97.48
2022-12-09T04:10:50.288Z,99.04
2022-12-09T04:15:49.372Z,99.97
2022-12-09T04:20:46.961Z,99.25
2022-12-09T04:25:44.109Z,100.00
2022-12-09T04:30:47.207Z,100.00
2022-12-09T04:35:46.244Z,99.55
2022-12-09T04:40:43.628Z,100.00
2022-12-09T04:45:40.660Z,100.00
2022-12-09T04:50:39.833Z,100.00
2022-12-09T04:55:37.117Z,100.00
2022-12-09T05:00:47.746Z,100.00
2022-12-09T05:05:45.850Z,100.00
2022-12-09T05:11:08.128Z,100.00
2022-12-09T05:16:12.181Z,100.00
2022-12-09T05:21:14.368Z,100.00
2022-12-09T05:26:12.468Z,100.00
2022-12-09T05:31:11.445Z,100.00
2022-12-09T05:36:11.814Z,100.00
2022-12-09T05:41:09.436Z,100.00
2022-12-09T05:46:07.793Z,100.00
2022-12-09T05:51:08.685Z,100.00
2022-12-09T05:56:06.188Z,100.00
2022-12-09T06:01:07.283Z,100.00
2022-12-09T06:06:09.215Z,100.00
2022-12-09T06:11:10.406Z,100.00
2022-12-09T06:16:10.790Z,100.00
2022-12-09T06:21:09.491Z,100.00
2022-12-09T06:26:14.887Z,100.00
2022-12-09T06:31:14.193Z,100.00
2022-12-09T06:36:12.039Z,100.00
2022-12-09T06:41:11.858Z,100.00
2022-12-09T06:46:13.705Z,100.00
2022-12-09T06:56:42.638Z,100.00
2022-12-09T07:01:44.875Z,100.00
2022-12-09T07:06:47.963Z,100.00
2022-12-09T07:11:50.869Z,100.00
2022-12-09T07:16:54.584Z,100.00
2022-12-09T07:21:54.457Z,100.00
2022-12-09T07:26:54.512Z,100.00
2022-12-09T07:32:06.279Z,100.00
2022-12-09T07:37:03.979Z,100.00
2022-12-09T07:42:03.070Z,100.00
2022-12-09T07:47:06.198Z,100.00
2022-12-09T07:52:05.806Z,100.00
2022-12-09T07:57:25.681Z,100.00
2022-12-09T08:02:25.165Z,100.00
2022-12-09T08:07:24.865Z,100.00
2022-12-09T08:12:22.004Z,100.00
2022-12-09T08:17:20.630Z,100.00
2022-12-09T08:22:18.480Z,100.00
2022-12-09T08:27:16.377Z,100.00
2022-12-09T08:32:23.511Z,100.00
2022-12-09T08:37:29.213Z,99.90
2022-12-09T08:42:29.844Z,98.98
2022-12-09T08:47:29.533Z,97.57
2022-12-09T08:52:32.262Z,99.65
2022-12-09T08:57:33.848Z,100.00
2022-12-09T09:02:33.624Z,99.84
2022-12-09T09:07:33.050Z,100.00
2022-12-09T09:12:37.347Z,99.78
2022-12-09T09:17:37.672Z,99.32
2022-12-09T09:22:44.377Z,98.79
2022-12-09T09:27:43.471Z,98.29
2022-12-09T09:32:40.603Z,97.52
2022-12-09T09:37:38.976Z,96.97
2022-12-09T09:42:40.965Z,97.43
2022-12-09T09:47:43.506Z,97.32
2022-12-09T09:52:56.176Z,97.62
2022-12-09T09:58:02.205Z,97.31
2022-12-09T10:03:01.121Z,96.54
2022-12-09T10:08:16.509Z,96.75
2022-12-09T10:13:26.406Z,96.35
2022-12-09T10:18:29.121Z,95.96
2022-12-09T10:23:36.030Z,95.30
2022-12-09T10:28:48.422Z,95.49
2022-12-09T10:33:46.311Z,95.33
2022-12-09T10:38:51.646Z,94.24
2022-12-09T10:43:49.282Z,94.79
2022-12-09T10:49:08.243Z,94.66
2022-12-09T10:54:21.663Z,94.78
2022-12-09T10:59:25.788Z,95.03
2022-12-09T11:04:37.502Z,95.11
2022-12-09T11:10:10.936Z,95.20
2022-12-09T11:15:25.572Z,94.10
2022-12-09T11:20:26.692Z,94.71
2022-12-09T11:25:29.631Z,96.98
2022-12-09T11:30:32.667Z,97.55
2022-12-09T11:35:32.138Z,100.00
2022-12-09T11:40:33.193Z,100.00
2022-12-09T11:45:42.103Z,99.49
2022-12-09T11:50:46.473Z,100.00
2022-12-09T11:55:48.400Z,99.48
2022-12-09T12:06:56.573Z,98.76
2022-12-09T12:11:58.559Z,98.27
2022-12-09T12:17:02.014Z,97.83
2022-12-09T12:22:15.936Z,98.74
2022-12-09T12:27:31.032Z,98.69
2022-12-09T12:33:17.855Z,98.78
2022-12-09T12:38:05.182Z,97.89
2022-12-09T12:43:33.479Z,98.02
2022-12-09T12:48:44.409Z,97.21
2022-12-09T12:53:47.616Z,96.93
2022-12-09T12:59:01.044Z,97.98
2022-12-09T13:04:10.090Z,99.00
2022-12-09T13:09:11.967Z,100.00
2022-12-09T13:14:17.828Z,100.00
2022-12-09T13:19:20.828Z,100.00
2022-12-09T13:36:46.517Z,100.00
2022-12-09T13:42:02.875Z,100.00
2022-12-09T13:47:23.099Z,100.00
2022-12-09T13:52:39.494Z,100.00
2022-12-09T13:58:08.737Z,100.00
2022-12-09T14:09:53.150Z,100.00
2022-12-09T14:14:51.132Z,100.00
2022-12-09T14:19:54.285Z,100.00
2022-12-09T14:24:59.965Z,100.00
2022-12-09T14:30:06.159Z,100.00
2022-12-09T14:35:16.392Z,100.00
2022-12-09T14:40:39.757Z,100.00
2022-12-09T14:45:45.948Z,100.00
2022-12-09T14:50:43.319Z,100.00
2022-12-09T14:55:43.103Z,100.00
2022-12-09T15:00:43.910Z,100.00
2022-12-09T15:05:56.991Z,100.00
2022-12-09T15:10:53.906Z,100.00
2022-12-09T15:15:51.717Z,100.00
2022-12-09T15:20:52.539Z,100.00
2022-12-09T15:25:51.034Z,100.00
2022-12-09T15:30:56.603Z,100.00
2022-12-09T15:35:56.655Z,100.00
2022-12-09T15:41:11.498Z,100.00
2022-12-09T15:46:08.569Z,100.00
2022-12-09T15:51:12.318Z,100.00
2022-12-09T15:56:11.918Z,100.00
2022-12-09T16:01:09.224Z,100.00
2022-12-09T16:06:08.619Z,100.00
2022-12-09T16:11:05.760Z,100.00
2022-12-09T16:16:22.850Z,100.00
2022-12-09T16:21:25.856Z,100.00
2022-12-09T16:26:24.912Z,100.00
2022-12-09T16:31:22.110Z,100.00
2022-12-09T16:36:25.885Z,100.00
2022-12-09T16:41:43.224Z,100.00
2022-12-09T16:46:40.985Z,100.00
2022-12-09T16:51:39.282Z,100.00
2022-12-09T16:56:36.401Z,100.00
2022-12-09T17:01:36.317Z,100.00
2022-12-09T17:06:33.581Z,100.00
2022-12-09T17:11:31.313Z,100.00
2022-12-09T17:16:34.939Z,100.00
2022-12-09T17:21:35.400Z,100.00
2022-12-09T17:26:32.875Z,100.00
2022-12-09T17:31:29.981Z,100.00
2022-12-09T17:36:26.748Z,100.00
2022-12-09T17:41:23.787Z,100.00
2022-12-09T17:46:21.406Z,100.00
2022-12-09T17:51:18.567Z,100.00
2022-12-09T17:56:16.441Z,100.00
2022-12-09T18:01:17.740Z,100.00
2022-12-09T18:06:18.155Z,100.00
2022-12-09T18:11:14.952Z,100.00
2022-12-09T18:16:15.328Z,100.00
2022-12-09T18:21:15.880Z,100.00
2022-12-09T18:26:15.888Z,100.00
2022-12-09T18:31:14.215Z,100.00
2022-12-09T18:36:12.918Z,100.00
2022-12-09T18:41:10.806Z,100.00
2022-12-09T18:46:10.356Z,100.00
2022-12-09T18:51:13.508Z,100.00
2022-12-09T18:56:10.681Z,100.00
2022-12-09T19:01:15.526Z,100.00
2022-12-09T19:06:20.000Z,100.00
2022-12-09T19:11:17.069Z,100.00
2022-12-09T19:16:14.561Z,100.00
2022-12-09T19:21:12.962Z,99.71
2022-12-09T19:26:13.144Z,99.30
2022-12-09T19:31:14.122Z,98.96
2022-12-09T19:36:12.111Z,99.09
2022-12-09T19:41:09.171Z,98.97
2022-12-09T19:46:06.999Z,98.64
2022-12-09T19:51:04.448Z,98.33
2022-12-09T19:56:02.758Z,97.92
2022-12-09T20:00:59.511Z,97.47
2022-12-09T20:05:56.177Z,97.18
2022-12-09T20:10:52.726Z,97.66
2022-12-09T20:15:50.374Z,97.75
2022-12-09T20:20:49.011Z,98.42
2022-12-09T20:25:46.049Z,100.00
2022-12-09T20:30:42.906Z,100.00
2022-12-09T20:35:40.195Z,100.00
2022-12-09T20:40:40.677Z,100.00
2022-12-09T20:45:38.237Z,100.00
2022-12-09T20:50:38.614Z,100.00
2022-12-09T20:55:36.292Z,100.00
2022-12-09T21:00:33.006Z,100.00
2022-12-09T21:05:29.657Z,100.00
2022-12-09T21:10:26.402Z,100.00
2022-12-09T21:15:26.779Z,100.00
2022-12-09T21:20:23.668Z,100.00
2022-12-09T21:25:20.465Z,100.00
2022-12-09T21:30:17.513Z,100.00
2022-12-09T21:35:17.021Z,100.00
2022-12-09T21:40:13.768Z,100.00
2022-12-09T21:45:10.587Z,100.00
2022-12-09T21:50:08.094Z,100.00
2022-12-09T21:55:06.023Z,100.00
2022-12-09T22:00:02.723Z,100.00
2022-12-09T22:05:02.194Z,100.00
2022-12-09T22:09:58.872Z,100.00
2022-12-09T22:14:56.207Z,100.00
2022-12-09T22:20:13.845Z,100.00
2022-12-09T22:25:10.840Z,100.00
2022-12-09T22:30:09.457Z,100.00
2022-12-09T22:35:06.879Z,100.00
2022-12-09T22:40:03.810Z,99.67
2022-12-09T22:45:00.595Z,98.47
2022-12-09T22:49:57.966Z,98.94
2022-12-09T22:54:54.537Z,97.95
2022-12-09T22:59:51.297Z,97.29
2022-12-09T23:04:48.356Z,97.56
2022-12-09T23:09:46.217Z,96.72
2022-12-09T23:14:42.908Z,96.53
2022-12-09T23:19:39.685Z,96.21
2022-12-09T23:24:38.905Z,96.43
2022-12-09T23:29:39.111Z,96.27
2022-12-09T23:34:35.977Z,96.66
2022-12-09T23:39:32.792Z,96.43
2022-12-09T23:44:29.545Z,96.16
2022-12-09T23:49:27.152Z,95.99
2022-12-09T23:54:23.910Z,95.75
2022-12-09T23:59:21.580Z,95.86
